Time;durP1;ratioP1;P1;durP2;ratioP2;P2;SDS_P1;SDS_P2;PMS_P1;PMS_P2;Temp;Humidity;BMP_temperature;BMP_pressure;BME280_temperature;BME280_humidity;BME280_pressure;Samples;Min_cycle;Max_cycle;Signal;HPM_P1;HPM_P2
2021/12/24 08:31:13;;;;;;;270.35;101.47;;;1.30;99.90;;;;;;5135249;27;20202;-89
2021/12/24 08:33:38;;;;;;;274.45;100.40;;;1.30;99.90;;;;;;5132878;28;20043;-90
2021/12/24 08:36:14;;;;;;;233.75;91.88;;;1.60;99.90;;;;;;5133967;28;20462;-89
2021/12/24 08:38:45;;;;;;;223.93;85.55;;;1.90;99.90;;;;;;5133309;28;20034;-90
2021/12/24 08:41:42;;;;;;;219.63;87.90;;;2.20;99.90;;;;;;5133408;27;20486;-90
2021/12/24 08:44:11;;;;;;;197.77;80.70;;;2.40;99.90;;;;;;5133705;28;20022;-90
2021/12/24 08:46:42;;;;;;;204.80;80.97;;;2.70;99.90;;;;;;5133719;27;20080;-90
2021/12/24 08:49:50;;;;;;;202.55;79.00;;;3.00;99.90;;;;;;5133013;28;20028;-89
2021/12/24 08:52:47;;;;;;;241.30;96.28;;;3.20;99.90;;;;;;5110514;28;20031;-90
2021/12/24 08:55:15;;;;;;;250.80;96.85;;;3.50;99.90;;;;;;5132825;28;20031;-89
2021/12/24 08:57:47;;;;;;;270.77;106.07;;;3.60;99.90;;;;;;5132831;28;20114;-88
2021/12/24 11:07:00;;;;;;;;;;;12.90;91.90;;;;;;5073995;27;20437;-90
2021/12/24 11:09:26;;;;;;;8.02;3.53;;;13.10;90.30;;;;;;5072273;28;20317;-90
2021/12/24 11:12:32;;;;;;;5.43;2.60;;;13.30;91.00;;;;;;5072274;28;20029;-88
2021/12/24 11:14:59;;;;;;;7.32;3.58;;;13.50;89.60;;;;;;5073038;28;20355;-88
2021/12/24 11:20:24;;;;;;;3.60;1.80;;;14.10;86.80;;;;;;5075387;28;20048;-89
2021/12/24 11:23:08;;;;;;;4.03;2.03;;;14.20;84.90;;;;;;5072342;28;20474;-89
2021/12/24 11:25:44;;;;;;;5.63;2.97;;;14.30;85.90;;;;;;5074043;28;20029;-89
2021/12/24 11:28:12;;;;;;;6.22;2.55;;;14.40;84.00;;;;;;5074192;28;20027;-90
2021/12/24 11:30:49;;;;;;;5.18;1.10;;;14.60;84.10;;;;;;5073323;28;20021;-90
2021/12/24 11:33:21;;;;;;;3.75;1.42;;;14.80;81.20;;;;;;5072193;28;20026;-90
2021/12/24 11:35:48;;;;;;;5.13;2.30;;;14.90;81.10;;;;;;5072450;28;20360;-89
2021/12/24 11:38:29;;;;;;;2.90;1.27;;;14.90;81.40;;;;;;5072282;28;20468;-91
2021/12/24 11:41:04;;;;;;;4.72;2.40;;;15.10;80.40;;;;;;5071419;28;20025;-89
2021/12/24 11:43:33;;;;;;;6.57;3.20;;;15.20;79.30;;;;;;5071632;28;20031;-89
2021/12/24 11:46:06;;;;;;;6.32;3.05;;;15.30;80.40;;;;;;5072373;28;20029;-90
2021/12/24 11:48:33;;;;;;;4.82;2.22;;;15.40;79.50;;;;;;5072884;28;20056;-90
2021/12/24 11:51:26;;;;;;;4.63;2.13;;;15.70;78.00;;;;;;5074085;28;20075;-90
2021/12/24 11:53:58;;;;;;;5.47;3.15;;;15.90;76.80;;;;;;5053516;28;20033;-91
2021/12/24 12:00:23;;;;;;;2.80;1.60;;;16.20;75.60;;;;;;5071066;28;20055;-89
2021/12/24 12:03:29;;;;;;;4.90;1.98;;;16.30;75.20;;;;;;5068684;28;20047;-88
2021/12/24 12:05:55;;;;;;;3.72;1.60;;;16.40;75.10;;;;;;5077864;28;20501;-88
2021/12/24 12:08:27;;;;;;;3.75;2.00;;;16.30;75.00;;;;;;5093848;28;20032;-87
2021/12/24 12:11:13;;;;;;;3.10;1.60;;;16.20;74.40;;;;;;5093956;28;20020;-86
2021/12/24 12:13:50;;;;;;;4.35;1.95;;;16.20;75.10;;;;;;5093635;28;20016;-87
2021/12/24 12:16:18;;;;;;;4.63;1.80;;;16.40;74.50;;;;;;5091651;28;20040;-88
2021/12/24 12:19:08;;;;;;;4.65;2.05;;;16.30;73.30;;;;;;5080372;28;20058;-87
2021/12/24 12:21:38;;;;;;;3.25;1.90;;;16.10;74.00;;;;;;5080481;28;20125;-87
2021/12/24 12:26:50;;;;;;;2.88;2.10;;;15.70;75.70;;;;;;5098241;28;20032;-87
2021/12/24 12:29:22;;;;;;;4.90;2.30;;;15.60;75.00;;;;;;5080395;28;20170;-88
2021/12/24 12:31:52;;;;;;;2.65;1.55;;;15.60;76.80;;;;;;5080496;28;20378;-87
2021/12/24 12:34:37;;;;;;;5.38;2.63;;;15.50;74.90;;;;;;5080295;28;20378;-87
2021/12/24 12:37:21;;;;;;;3.47;1.50;;;15.40;77.20;;;;;;5080135;28;20031;-87
2021/12/24 12:39:53;;;;;;;1.92;1.17;;;15.20;75.60;;;;;;5080058;28;20027;-88
2021/12/24 12:42:21;;;;;;;1.98;1.00;;;15.20;76.40;;;;;;5080145;28;20020;-87
2021/12/24 12:44:52;;;;;;;2.58;1.38;;;15.10;76.70;;;;;;5080706;28;20051;-86
2021/12/24 12:47:34;;;;;;;3.65;1.45;;;15.10;77.50;;;;;;5098156;28;20067;-88
2021/12/24 12:50:41;;;;;;;1.50;1.20;;;15.10;76.80;;;;;;5080451;28;20017;-88
2021/12/24 12:53:28;;;;;;;2.60;1.38;;;15.10;77.00;;;;;;5079922;28;20370;-88
2021/12/24 12:56:23;;;;;;;5.05;2.20;;;15.00;76.40;;;;;;5079018;28;20032;-88
2021/12/24 12:58:56;;;;;;;6.32;3.70;;;14.90;78.00;;;;;;5079876;28;20032;-88
2021/12/24 13:01:22;;;;;;;9.38;3.55;;;15.00;78.50;;;;;;5079798;28;20543;-88
2021/12/24 13:04:40;;;;;;;5.40;2.38;;;15.00;78.60;;;;;;5079678;28;20024;-88
2021/12/24 13:11:32;;;;;;;5.00;2.22;;;15.00;78.00;;;;;;4937258;29;20119;-88
2021/12/24 13:14:01;;;;;;;3.63;2.30;;;15.10;78.20;;;;;;4930849;29;20032;-88
2021/12/24 13:16:34;;;;;;;3.08;1.80;;;15.40;77.20;;;;;;4937946;29;20467;-88
2021/12/24 13:23:03;;;;;;;7.22;3.00;;;16.10;75.50;;;;;;5014969;28;20041;-86
2021/12/24 13:25:29;;;;;;;2.97;1.48;;;16.50;73.60;;;;;;4984948;28;20491;-87
2021/12/24 13:28:19;;;;;;;7.13;3.78;;;16.60;73.40;;;;;;4997951;28;20058;-87
2021/12/24 13:30:45;;;;;;;4.95;2.42;;;16.90;73.30;;;;;;5070222;28;20036;-86
2021/12/24 13:36:52;;;;;;;4.07;2.20;;;16.60;73.60;;;;;;4997798;28;20554;-87
2021/12/24 13:39:21;;;;;;;3.90;2.00;;;16.50;72.70;;;;;;5079260;28;20103;-88
2021/12/24 13:41:48;;;;;;;4.65;2.38;;;16.40;74.60;;;;;;5079490;28;20162;-88
2021/12/24 13:44:27;;;;;;;6.65;3.40;;;16.40;73.80;;;;;;5079042;28;20057;-88
2021/12/24 13:48:15;;;;;;;5.18;2.13;;;16.40;74.10;;;;;;5078728;28;20031;-87
2021/12/24 13:54:32;;;;;;;8.30;4.07;;;16.10;73.40;;;;;;5085891;28;20056;-88
2021/12/24 13:56:41;;;;;;;6.18;2.60;;;15.70;75.70;;;;;;5096611;28;20545;-88
2021/12/24 13:59:15;;;;;;;15.40;6.88;;;15.60;75.10;;;;;;5079506;28;20465;-87
2021/12/24 14:01:42;;;;;;;6.35;3.30;;;15.40;76.80;;;;;;5078844;28;20106;-88
2021/12/24 14:04:09;;;;;;;7.88;3.50;;;15.30;75.70;;;;;;5078319;28;20028;-87
2021/12/24 14:10:21;;;;;;;6.35;3.08;;;15.20;75.80;;;;;;5021553;28;20056;-89
2021/12/24 14:12:47;;;;;;;6.10;2.85;;;15.10;76.70;;;;;;5078746;28;20107;-85
2021/12/24 14:15:15;;;;;;;3.78;1.90;;;15.00;77.40;;;;;;5077301;28;20060;-86
2021/12/24 14:18:03;;;;;;;7.07;2.55;;;14.90;77.90;;;;;;5078267;28;20028;-87
2021/12/24 14:21:00;;;;;;;7.18;2.75;;;14.80;77.40;;;;;;5077246;28;20405;-86
2021/12/24 14:23:19;;;;;;;8.38;3.90;;;14.80;77.00;;;;;;5096033;28;20020;-86
2021/12/24 14:26:00;;;;;;;7.82;4.63;;;14.80;77.60;;;;;;5077491;28;20093;-86
2021/12/24 14:28:26;;;;;;;8.40;4.22;;;14.90;77.80;;;;;;5077877;28;20040;-84
2021/12/24 14:31:04;;;;;;;10.85;5.32;;;14.90;77.50;;;;;;5077589;28;20021;-88
2021/12/24 14:33:36;;;;;;;8.52;4.10;;;14.80;77.30;;;;;;5077139;28;20020;-88
2021/12/24 14:36:03;;;;;;;16.48;8.25;;;14.80;77.50;;;;;;5078040;28;20028;-87
2021/12/24 14:45:36;;;;;;;6.35;3.80;;;14.40;78.50;;;;;;5096219;28;20085;-86
2021/12/24 14:48:21;;;;;;;17.58;6.78;;;14.40;79.40;;;;;;5077821;28;20103;-87
2021/12/24 14:50:53;;;;;;;26.90;10.70;;;14.30;79.50;;;;;;5077739;28;20038;-87
2021/12/24 14:53:34;;;;;;;9.20;4.05;;;14.30;79.20;;;;;;5077783;28;20438;-87
2021/12/24 14:55:59;;;;;;;10.77;4.82;;;14.20;79.40;;;;;;5077893;28;20390;-87
2021/12/24 14:58:43;;;;;;;11.20;4.80;;;14.10;80.10;;;;;;5077956;28;20474;-87
2021/12/24 15:01:16;;;;;;;14.27;6.50;;;14.10;79.80;;;;;;5077871;28;20543;-87
2021/12/24 15:03:57;;;;;;;8.93;3.38;;;14.00;80.30;;;;;;5077675;28;20032;-86
2021/12/24 15:06:27;;;;;;;7.32;4.07;;;14.00;80.00;;;;;;5077621;28;20497;-87
2021/12/24 15:08:56;;;;;;;7.57;3.95;;;13.90;80.50;;;;;;5077581;28;20016;-86
2021/12/24 15:11:25;;;;;;;6.65;3.15;;;13.90;80.90;;;;;;5077477;28;20020;-87
2021/12/24 15:13:54;;;;;;;9.13;4.32;;;13.90;80.60;;;;;;5077672;28;20020;-86
2021/12/24 15:16:22;;;;;;;10.35;4.95;;;13.90;80.90;;;;;;5095677;28;20020;-86
2021/12/24 15:18:51;;;;;;;6.53;3.05;;;13.80;82.10;;;;;;5078332;28;20106;-86
2021/12/24 15:21:21;;;;;;;8.73;4.30;;;13.70;81.20;;;;;;5078095;28;20019;-86
2021/12/24 15:23:51;;;;;;;10.10;4.68;;;13.70;81.60;;;;;;5078057;28;20016;-86
2021/12/24 15:26:19;;;;;;;9.73;4.47;;;13.60;81.90;;;;;;5078098;28;20028;-87
2021/12/24 15:28:48;;;;;;;11.40;4.63;;;13.60;82.80;;;;;;5073861;28;20032;-86
2021/12/24 15:31:16;;;;;;;12.32;5.20;;;13.50;82.00;;;;;;5077933;28;20107;-86
2021/12/24 15:33:43;;;;;;;10.18;5.03;;;13.40;82.60;;;;;;5077836;28;20111;-86
2021/12/24 15:36:09;;;;;;;4.80;3.05;;;13.40;82.60;;;;;;5074043;28;20032;-87
2021/12/24 15:38:36;;;;;;;10.43;4.38;;;13.40;82.40;;;;;;5075852;28;20047;-87
2021/12/24 15:41:05;;;;;;;22.35;10.15;;;13.40;82.50;;;;;;5077292;28;20450;-86
2021/12/24 15:43:32;;;;;;;9.95;5.07;;;13.40;83.00;;;;;;5076658;28;20028;-86
2021/12/24 15:45:58;;;;;;;13.65;6.57;;;13.30;82.80;;;;;;5077214;28;20028;-86
2021/12/24 15:48:24;;;;;;;11.20;3.60;;;13.30;83.70;;;;;;5076798;28;20089;-86
2021/12/24 15:50:51;;;;;;;7.70;3.63;;;13.20;83.50;;;;;;5076822;28;20047;-86
2021/12/24 15:53:18;;;;;;;14.48;6.03;;;13.10;83.80;;;;;;5079749;28;20020;-87
2021/12/24 15:55:44;;;;;;;8.68;4.50;;;13.10;84.40;;;;;;5081168;28;20027;-87
2021/12/24 15:58:10;;;;;;;13.35;4.70;;;13.10;84.80;;;;;;5080782;28;20106;-87
2021/12/24 16:00:44;;;;;;;8.60;3.40;;;13.00;84.50;;;;;;5080793;28;20493;-86
2021/12/24 16:03:11;;;;;;;9.63;3.47;;;13.00;85.10;;;;;;5079778;28;20020;-86
2021/12/24 16:05:54;;;;;;;;;;;;;;;;;;;;;
2021/12/24 16:08:25;;;;;;;9.82;4.50;;;13.00;85.30;;;;;;5096961;28;20046;-87
2021/12/24 16:10:51;;;;;;;11.57;5.45;;;13.00;86.30;;;;;;5080051;28;20032;-87
2021/12/24 16:13:20;;;;;;;12.27;5.55;;;13.00;85.80;;;;;;5079453;28;20382;-86
2021/12/24 16:16:10;;;;;;;17.80;7.95;;;13.10;86.00;;;;;;5080246;28;20024;-87
2021/12/24 16:18:36;;;;;;;23.67;9.07;;;13.00;86.40;;;;;;5079308;28;20020;-88
2021/12/24 16:21:03;;;;;;;29.17;10.88;;;13.00;85.10;;;;;;5080686;28;20050;-88
2021/12/24 16:23:28;;;;;;;39.10;16.00;;;13.00;85.40;;;;;;5081226;28;20032;-88
2021/12/24 16:25:54;;;;;;;20.63;9.95;;;12.90;85.80;;;;;;5080953;28;20035;-88
2021/12/24 16:28:20;;;;;;;12.40;5.72;;;12.90;86.10;;;;;;5080951;28;20031;-88
2021/12/24 16:30:46;;;;;;;15.57;5.60;;;12.90;85.50;;;;;;5080309;28;20480;-88
2021/12/24 16:33:12;;;;;;;9.85;4.00;;;12.90;86.00;;;;;;5079779;28;20471;-88
2021/12/24 16:35:38;;;;;;;4.63;2.38;;;12.80;86.20;;;;;;5079787;28;20028;-88
2021/12/24 16:38:05;;;;;;;11.18;4.55;;;12.80;86.00;;;;;;5080416;28;20046;-87
2021/12/24 16:40:33;;;;;;;14.77;5.22;;;12.80;86.60;;;;;;5079890;28;20020;-88
2021/12/24 16:42:59;;;;;;;10.52;4.28;;;12.80;86.30;;;;;;5080278;28;20053;-88
2021/12/24 16:45:31;;;;;;;11.88;4.95;;;12.80;86.30;;;;;;5079994;28;20040;-88
2021/12/24 16:48:07;;;;;;;20.75;7.72;;;12.80;86.80;;;;;;5080592;28;20045;-88
2021/12/24 16:50:35;;;;;;;24.40;6.68;;;12.80;86.60;;;;;;5080823;28;20011;-88
2021/12/24 16:53:01;;;;;;;14.48;4.90;;;12.80;86.40;;;;;;5080447;28;20028;-88
2021/12/24 16:55:28;;;;;;;11.05;4.70;;;12.80;86.90;;;;;;5080943;28;20040;-88
2021/12/24 16:57:56;;;;;;;20.50;6.88;;;12.70;86.20;;;;;;5080094;28;20490;-88
2021/12/24 17:00:23;;;;;;;15.13;6.82;;;12.70;86.70;;;;;;5080156;28;20056;-88
2021/12/24 17:02:49;;;;;;;11.75;5.13;;;12.60;87.30;;;;;;5079826;28;20020;-88
2021/12/24 17:05:15;;;;;;;15.57;5.60;;;12.60;87.00;;;;;;5080191;28;20486;-88
2021/12/24 17:07:41;;;;;;;17.17;7.78;;;12.60;87.10;;;;;;5079857;28;20077;-88
2021/12/24 17:10:08;;;;;;;18.90;8.68;;;12.50;87.90;;;;;;5079824;28;20114;-88
2021/12/24 17:12:34;;;;;;;16.60;7.55;;;12.50;87.60;;;;;;5080024;28;20081;-88
2021/12/24 17:15:00;;;;;;;13.95;6.63;;;12.50;88.10;;;;;;5079875;28;20031;-88
2021/12/24 17:17:27;;;;;;;24.15;11.13;;;12.40;87.90;;;;;;5079957;28;20042;-88
2021/12/24 17:19:57;;;;;;;23.88;10.05;;;12.40;87.90;;;;;;5079564;28;20020;-88
2021/12/24 17:22:25;;;;;;;16.90;8.52;;;12.50;88.60;;;;;;5079390;28;20047;-88
2021/12/24 17:24:52;;;;;;;28.00;11.00;;;12.40;88.20;;;;;;5079497;28;20056;-87
2021/12/24 17:27:18;;;;;;;18.20;7.85;;;12.40;88.20;;;;;;5079695;28;20471;-87
2021/12/24 17:29:44;;;;;;;22.77;10.38;;;12.30;88.40;;;;;;5079337;28;20046;-87
2021/12/24 17:32:10;;;;;;;24.40;11.65;;;12.30;89.00;;;;;;5078683;28;20382;-88
2021/12/24 17:34:36;;;;;;;20.63;9.65;;;12.30;88.90;;;;;;5078893;28;20028;-88
2021/12/24 17:37:02;;;;;;;11.82;4.93;;;12.30;89.10;;;;;;5079224;28;20027;-87
2021/12/24 17:39:28;;;;;;;8.05;3.53;;;12.20;89.30;;;;;;5079476;28;20031;-88
2021/12/24 17:41:54;;;;;;;11.40;5.57;;;12.20;89.50;;;;;;5079502;28;20178;-87
2021/12/24 17:44:19;;;;;;;8.18;3.20;;;12.30;89.70;;;;;;5079508;28;20028;-87
2021/12/24 17:46:45;;;;;;;13.20;5.47;;;12.20;89.40;;;;;;5079086;28;20032;-87
2021/12/24 17:49:12;;;;;;;11.40;4.78;;;12.30;89.30;;;;;;5079165;28;20470;-87
2021/12/24 17:51:38;;;;;;;11.50;4.95;;;12.30;89.60;;;;;;5078875;28;20024;-87
2021/12/24 17:54:04;;;;;;;6.85;2.28;;;12.30;89.80;;;;;;5078918;28;20016;-87
2021/12/24 17:56:30;;;;;;;6.80;3.10;;;12.30;89.80;;;;;;5078566;28;20073;-87
2021/12/24 17:58:57;;;;;;;9.77;3.75;;;12.30;89.60;;;;;;5078854;28;20035;-87
2021/12/24 18:01:24;;;;;;;13.38;6.47;;;12.30;90.00;;;;;;5078679;28;20015;-87
2021/12/24 18:03:50;;;;;;;8.75;3.47;;;12.30;89.80;;;;;;5078906;28;20024;-87
2021/12/24 18:06:17;;;;;;;11.10;5.32;;;12.30;90.20;;;;;;5077803;28;20032;-87
2021/12/24 18:08:42;;;;;;;4.72;2.30;;;12.30;90.20;;;;;;5078199;28;20420;-87
2021/12/24 18:11:08;;;;;;;9.15;3.88;;;12.20;90.00;;;;;;5078406;28;20024;-87
2021/12/24 18:13:37;;;;;;;6.32;3.10;;;12.30;90.00;;;;;;5078738;28;20059;-87
2021/12/24 18:16:03;;;;;;;10.80;4.53;;;12.20;90.00;;;;;;5078084;28;20123;-86
2021/12/24 18:18:28;;;;;;;9.20;3.95;;;12.20;90.20;;;;;;5078720;28;20055;-87
2021/12/24 18:20:55;;;;;;;9.35;4.75;;;12.20;90.40;;;;;;5078566;28;20115;-87
2021/12/24 18:23:21;;;;;;;9.07;3.80;;;12.20;90.40;;;;;;5078825;28;20062;-87
2021/12/24 18:25:47;;;;;;;6.88;3.00;;;12.20;90.20;;;;;;5078445;28;20082;-87
2021/12/24 18:28:14;;;;;;;7.32;2.70;;;12.20;90.50;;;;;;5078351;28;20387;-87
2021/12/24 18:30:40;;;;;;;6.93;2.72;;;12.20;90.60;;;;;;5078534;28;20466;-87
2021/12/24 18:33:06;;;;;;;8.15;3.88;;;12.20;90.30;;;;;;5078370;28;20024;-87
2021/12/24 18:35:33;;;;;;;8.90;3.72;;;12.30;90.60;;;;;;5078471;28;20539;-87
2021/12/24 18:40:34;;;;;;;10.23;4.15;;;12.20;90.40;;;;;;5096372;28;20020;-86
2021/12/24 18:43:00;;;;;;;10.23;4.45;;;12.20;90.60;;;;;;5077298;28;20024;-87
2021/12/24 18:45:26;;;;;;;20.15;8.55;;;12.10;90.60;;;;;;5077826;28;20036;-87
2021/12/24 18:47:53;;;;;;;16.00;7.53;;;12.10;90.80;;;;;;5077721;28;20411;-87
2021/12/24 18:50:20;;;;;;;12.65;5.55;;;12.10;91.20;;;;;;5078187;28;20082;-87
2021/12/24 18:52:47;;;;;;;14.43;6.75;;;12.10;90.80;;;;;;5077891;28;20026;-87
2021/12/24 18:55:12;;;;;;;21.08;8.73;;;12.10;90.90;;;;;;5077670;28;20116;-87
2021/12/24 18:57:38;;;;;;;16.40;7.40;;;12.10;90.90;;;;;;5077933;28;20480;-87
2021/12/24 19:00:07;;;;;;;18.88;6.78;;;12.10;90.80;;;;;;5077855;28;20024;-87
2021/12/24 19:02:32;;;;;;;16.48;6.53;;;12.00;90.60;;;;;;5077972;28;20032;-87
2021/12/24 19:04:58;;;;;;;14.13;6.20;;;12.00;91.20;;;;;;5077803;28;20424;-87
2021/12/24 19:07:24;;;;;;;14.75;5.15;;;12.00;90.90;;;;;;5077808;28;20051;-87
2021/12/24 19:09:50;;;;;;;10.13;4.47;;;12.10;90.80;;;;;;5077337;28;20035;-87
2021/12/24 19:12:17;;;;;;;16.65;6.00;;;12.10;90.80;;;;;;5077589;28;20031;-87
2021/12/24 19:14:43;;;;;;;25.83;10.43;;;12.10;90.70;;;;;;5078131;28;20031;-87
2021/12/24 19:17:09;;;;;;;24.55;9.80;;;12.10;90.80;;;;;;5077204;28;20048;-87
2021/12/24 19:19:35;;;;;;;24.88;9.63;;;12.10;91.20;;;;;;5077165;28;20499;-87
2021/12/24 19:22:02;;;;;;;60.72;23.00;;;12.00;91.00;;;;;;5077845;28;20024;-87
2021/12/24 19:24:28;;;;;;;29.80;12.57;;;12.10;91.20;;;;;;5077850;28;20097;-87
2021/12/24 19:26:54;;;;;;;20.15;8.48;;;12.10;90.60;;;;;;5078308;28;20130;-87
2021/12/24 19:29:22;;;;;;;10.85;5.50;;;12.10;90.50;;;;;;5082255;28;20020;-87
2021/12/24 19:31:52;;;;;;;17.50;7.93;;;12.10;90.30;;;;;;5081717;28;20470;-87
2021/12/24 19:34:18;;;;;;;7.80;3.42;;;12.10;90.40;;;;;;5081597;28;20146;-87
2021/12/24 19:36:44;;;;;;;14.25;6.47;;;12.10;90.40;;;;;;5081327;28;20115;-87
2021/12/24 19:39:10;;;;;;;18.10;7.90;;;12.10;90.50;;;;;;5081636;28;20110;-87
2021/12/24 19:41:35;;;;;;;65.82;32.28;;;12.10;90.90;;;;;;5081390;28;20499;-87
2021/12/24 19:44:01;;;;;;;107.40;48.20;;;12.10;90.60;;;;;;5081472;28;20107;-87
2021/12/24 19:46:27;;;;;;;169.80;70.88;;;11.80;90.70;;;;;;5081442;28;20024;-87
2021/12/24 19:48:53;;;;;;;124.78;53.97;;;11.60;91.10;;;;;;5081328;28;20020;-87
2021/12/24 19:51:22;;;;;;;127.18;54.47;;;11.30;91.30;;;;;;5081165;28;20055;-86
2021/12/24 19:53:49;;;;;;;140.55;59.40;;;11.20;91.80;;;;;;5080590;28;20121;-87
2021/12/24 19:56:15;;;;;;;158.32;60.35;;;11.00;92.00;;;;;;5081267;28;20096;-87
2021/12/24 19:58:41;;;;;;;148.75;59.08;;;10.90;92.00;;;;;;5081203;28;20082;-87
2021/12/24 20:01:06;;;;;;;136.98;54.38;;;10.80;92.70;;;;;;5098925;28;20020;-87
2021/12/24 20:03:32;;;;;;;129.75;54.13;;;10.80;92.60;;;;;;5080929;28;20024;-87
2021/12/24 20:05:58;;;;;;;149.60;57.63;;;10.70;92.60;;;;;;5080625;28;20115;-88
2021/12/24 20:08:25;;;;;;;184.52;66.82;;;10.60;92.80;;;;;;5080771;28;20024;-87
2021/12/24 20:10:52;;;;;;;166.35;63.67;;;10.50;93.20;;;;;;5080650;28;20489;-87
2021/12/24 20:13:18;;;;;;;144.05;54.42;;;10.40;93.10;;;;;;5080824;28;20024;-87
2021/12/24 20:15:44;;;;;;;114.15;46.08;;;10.30;93.70;;;;;;5081505;28;20020;-86
2021/12/24 20:18:12;;;;;;;125.30;48.72;;;10.10;93.50;;;;;;5081397;28;20049;-87
2021/12/24 20:20:38;;;;;;;110.38;45.25;;;10.00;93.60;;;;;;5080784;28;20028;-87
2021/12/24 20:23:04;;;;;;;96.05;40.40;;;10.00;94.00;;;;;;5081946;28;20039;-87
2021/12/24 20:25:32;;;;;;;112.78;45.40;;;9.90;94.20;;;;;;5080680;28;20032;-86
2021/12/24 20:27:59;;;;;;;133.93;50.78;;;9.90;94.20;;;;;;5080224;28;20118;-87
2021/12/24 20:30:26;;;;;;;119.20;44.70;;;9.80;94.50;;;;;;5081160;28;20027;-87
2021/12/24 20:32:52;;;;;;;160.48;54.60;;;9.60;95.00;;;;;;5081071;28;20420;-87
2021/12/24 20:35:19;;;;;;;164.38;57.08;;;9.40;95.00;;;;;;5080714;28;20028;-87
2021/12/24 20:37:45;;;;;;;119.18;44.95;;;9.30;95.30;;;;;;5080387;28;20089;-87
2021/12/24 20:40:13;;;;;;;111.55;43.15;;;9.30;95.60;;;;;;5080830;28;20028;-86
2021/12/24 20:42:40;;;;;;;77.38;31.83;;;9.20;95.60;;;;;;5081311;28;20076;-87
2021/12/24 20:45:09;;;;;;;81.40;34.85;;;9.20;95.60;;;;;;5080681;28;20028;-87
2021/12/24 20:47:34;;;;;;;76.32;33.80;;;9.30;95.70;;;;;;5080693;28;20031;-87
2021/12/24 20:50:00;;;;;;;97.57;37.92;;;9.20;95.60;;;;;;5098511;28;20040;-87
2021/12/24 20:52:26;;;;;;;102.15;41.05;;;9.20;96.00;;;;;;5080373;28;20458;-87
2021/12/24 20:54:53;;;;;;;112.85;42.15;;;9.20;95.70;;;;;;5098399;28;20016;-86
2021/12/24 20:57:19;;;;;;;94.72;39.00;;;9.20;96.20;;;;;;5080443;28;20078;-87
2021/12/24 20:59:45;;;;;;;104.00;40.80;;;9.00;96.10;;;;;;5080397;28;20017;-87
2021/12/24 21:02:13;;;;;;;114.72;41.20;;;8.90;96.50;;;;;;5080941;28;20027;-87
